Time;durP1;ratioP1;P1;durP2;ratioP2;P2;SDS_P1;SDS_P2;PMS_P1;PMS_P2;Temp;Humidity;BMP_temperature;BMP_pressure;BME280_temperature;BME280_humidity;BME280_pressure;Samples;Min_cycle;Max_cycle;Signal;HPM_P1;HPM_P2
2022/05/05 00:01:21;;;;;;;5.30;2.40;;;;;;;12.62;52.31;100486.00;5157270;27;20030;-79
2022/05/05 00:03:47;;;;;;;17.40;1.70;;;;;;;12.71;51.39;100484.72;5138451;27;20110;-79
2022/05/05 00:06:12;;;;;;;4.65;1.67;;;;;;;12.61;51.76;100480.81;5157407;27;20789;-79
2022/05/05 00:08:37;;;;;;;3.95;1.70;;;;;;;12.49;51.58;100480.69;5157129;27;20049;-79
2022/05/05 00:16:31;;;;;;;6.63;1.70;;;;;;;12.20;56.89;100489.31;5157075;27;20086;-79
2022/05/05 00:18:56;;;;;;;6.90;1.60;;;;;;;12.07;57.01;100476.69;5157478;27;20035;-79
2022/05/05 00:21:22;;;;;;;6.00;1.73;;;;;;;12.30;56.45;100484.31;5157477;27;20429;-79
2022/05/05 00:23:47;;;;;;;4.13;1.50;;;;;;;12.21;56.23;100483.69;5157394;27;20038;-79
2022/05/05 00:26:12;;;;;;;6.60;2.00;;;;;;;12.21;55.32;100478.31;5159519;27;20123;-79
2022/05/05 00:28:38;;;;;;;4.67;1.57;;;;;;;12.30;55.59;100482.44;5158409;27;20655;-79
2022/05/05 00:31:03;;;;;;;5.57;1.57;;;;;;;12.12;55.45;100477.72;5164862;27;20034;-79
2022/05/05 00:33:28;;;;;;;7.37;1.77;;;;;;;12.05;55.83;100478.78;5167527;27;20433;-79
2022/05/05 00:35:53;;;;;;;10.33;2.83;;;;;;;12.02;55.43;100468.41;5168326;27;20512;-79
2022/05/05 00:38:19;;;;;;;3.00;1.47;;;;;;;12.11;54.89;100472.53;5167627;27;20031;-79
2022/05/05 00:40:44;;;;;;;2.67;1.00;;;;;;;12.05;53.83;100468.81;5167209;27;20035;-78
2022/05/05 00:43:10;;;;;;;5.40;1.70;;;;;;;12.04;53.56;100466.31;5164872;27;20022;-79
2022/05/05 00:45:35;;;;;;;11.35;1.80;;;;;;;12.00;52.92;100470.50;5160221;27;20076;-79
2022/05/05 00:48:05;;;;;;;5.53;1.57;;;;;;;12.09;52.81;100470.03;5160222;27;20040;-79
2022/05/05 00:50:35;;;;;;;4.57;1.73;;;;;;;12.07;52.61;100477.53;5158460;27;20367;-79
2022/05/05 00:53:01;;;;;;;4.68;1.40;;;;;;;12.04;53.21;100474.41;5159560;27;20019;-79
2022/05/05 00:55:27;;;;;;;3.88;1.60;;;;;;;12.05;53.34;100476.91;5140054;27;20027;-79
2022/05/05 00:57:53;;;;;;;;;;;;;;;12.02;53.29;100476.50;5139677;27;20045;-79
2022/05/05 01:00:19;;;;;;;9.10;1.55;;;;;;;11.98;53.07;100475.28;5157166;27;20277;-79
2022/05/05 01:02:45;;;;;;;4.72;1.42;;;;;;;11.91;53.13;100480.69;5156662;27;20062;-78
2022/05/05 01:05:10;;;;;;;6.07;1.80;;;;;;;11.91;52.88;100479.88;5156830;27;20054;-78
2022/05/05 01:07:36;;;;;;;3.90;1.33;;;;;;;11.92;53.12;100474.25;5138454;27;20034;-78
2022/05/05 01:10:01;;;;;;;;;;;;;;;11.95;53.21;100479.25;5158125;27;20027;-79
2022/05/05 01:12:31;;;;;;;4.78;1.60;;;;;;;12.03;53.29;100478.16;5158845;27;20272;-78
2022/05/05 01:14:58;;;;;;;3.85;1.70;;;;;;;11.98;52.86;100465.31;5160820;27;20023;-78
2022/05/05 01:17:23;;;;;;;5.20;1.35;;;;;;;11.98;53.21;100478.00;5165225;27;20031;-78
2022/05/05 01:19:48;;;;;;;3.87;1.50;;;;;;;12.09;52.76;100477.31;5165578;27;20072;-78
2022/05/05 01:22:15;;;;;;;5.43;1.60;;;;;;;12.08;52.59;100486.47;5163912;27;20069;-78
2022/05/05 01:30:08;;;;;;;3.95;1.20;;;;;;;12.27;52.62;100484.72;5155858;27;20114;-78
2022/05/05 01:32:33;;;;;;;4.55;1.40;;;;;;;12.18;52.86;100479.56;5156095;27;20054;-78
2022/05/05 01:34:59;;;;;;;3.40;1.37;;;;;;;12.16;53.00;100478.13;5155510;27;20384;-78
2022/05/05 01:37:25;;;;;;;7.28;1.75;;;;;;;12.18;52.95;100476.06;5155652;27;20331;-79
2022/05/05 01:39:50;;;;;;;5.43;1.95;;;;;;;12.21;53.14;100478.31;5156090;27;20042;-80
2022/05/05 01:42:16;;;;;;;4.97;1.17;;;;;;;12.23;51.96;100483.50;5155523;27;20461;-80
2022/05/05 01:44:41;;;;;;;4.82;1.55;;;;;;;12.20;52.34;100478.50;5137042;27;20110;-80
2022/05/05 01:47:06;;;;;;;4.50;1.50;;;;;;;12.21;52.20;100483.69;5155760;27;20041;-80
2022/05/05 01:49:32;;;;;;;6.03;1.83;;;;;;;12.32;52.40;100485.75;5155909;27;20038;-79
2022/05/05 01:51:58;;;;;;;6.47;1.80;;;;;;;12.24;52.25;100485.97;5158330;27;20028;-79
2022/05/05 01:54:23;;;;;;;4.38;1.50;;;;;;;12.28;52.51;100491.78;5160359;27;20027;-79
2022/05/05 01:56:49;;;;;;;4.63;1.67;;;;;;;12.39;51.87;100489.22;5160229;27;20541;-80
2022/05/05 01:59:14;;;;;;;4.73;1.43;;;;;;;12.30;52.55;100484.31;5160585;27;20256;-80
2022/05/05 02:01:39;;;;;;;5.28;1.27;;;;;;;12.33;53.29;100489.28;5160127;27;20034;-80
2022/05/05 02:04:05;;;;;;;5.53;1.80;;;;;;;12.27;52.60;100484.72;5160585;27;20053;-80
2022/05/05 02:06:30;;;;;;;4.17;1.63;;;;;;;12.21;52.81;100483.69;5160647;27;20047;-79
2022/05/05 02:08:57;;;;;;;6.13;1.80;;;;;;;12.15;52.91;100495.38;5160346;27;20393;-79
2022/05/05 02:11:22;;;;;;;7.43;1.90;;;;;;;12.09;52.69;100491.66;5160668;27;20064;-80
2022/05/05 02:13:48;;;;;;;4.05;1.65;;;;;;;12.03;52.92;100486.25;5162856;27;20053;-80
2022/05/05 02:16:13;;;;;;;5.70;1.90;;;;;;;12.03;52.94;100492.50;5144726;27;20514;-80
2022/05/05 02:18:38;;;;;;;7.70;2.27;;;;;;;12.04;53.25;100490.63;5143730;27;20064;-78
2022/05/05 02:21:04;;;;;;;4.70;1.67;;;;;;;12.18;52.59;100496.84;5159103;27;20034;-78
2022/05/05 02:23:29;;;;;;;5.83;1.37;;;;;;;12.19;53.17;100496.59;5159125;27;20027;-78
2022/05/05 02:25:54;;;;;;;8.13;1.77;;;;;;;12.19;53.35;100502.00;5141086;27;20031;-78
2022/05/05 02:28:19;;;;;;;5.50;1.30;;;;;;;12.18;52.81;100493.06;5159266;27;20075;-78
2022/05/05 02:30:45;;;;;;;5.00;1.63;;;;;;;12.15;53.76;100495.38;5159379;27;20045;-78
2022/05/05 02:33:10;;;;;;;5.60;1.80;;;;;;;12.10;53.98;100496.00;5140997;27;20098;-78
2022/05/05 02:35:36;;;;;;;5.80;1.70;;;;;;;12.11;53.12;100496.84;5159152;27;20050;-78
2022/05/05 02:40:45;;;;;;;5.18;1.30;;;;;;;12.13;56.26;100498.28;5158954;27;20041;-78
2022/05/05 02:43:11;;;;;;;6.43;1.88;;;;;;;11.91;57.96;100496.06;5140942;27;20054;-78
2022/05/05 02:45:36;;;;;;;6.70;1.70;;;;;;;11.86;59.59;100502.09;5159039;27;20027;-78
2022/05/05 02:48:02;;;;;;;6.85;1.63;;;;;;;11.58;60.95;100504.19;5158979;27;20453;-78
2022/05/05 02:50:27;;;;;;;5.07;1.67;;;;;;;11.67;60.62;100506.47;5158867;27;20026;-79
2022/05/05 02:52:54;;;;;;;6.80;1.50;;;;;;;11.55;61.38;100502.75;5159519;27;20090;-79
2022/05/05 02:55:20;;;;;;;4.18;2.10;;;;;;;11.44;61.89;100504.22;5158927;27;20529;-79
2022/05/05 02:57:45;;;;;;;4.43;1.63;;;;;;;11.36;62.64;100501.72;5159415;27;20054;-79
2022/05/05 03:00:12;;;;;;;4.85;2.00;;;;;;;11.28;62.70;100504.66;5140351;27;20065;-79
2022/05/05 03:02:37;;;;;;;4.70;1.92;;;;;;;11.24;63.08;100503.41;5158323;27;20023;-79
2022/05/05 03:05:03;;;;;;;7.18;2.03;;;;;;;11.08;64.06;100503.81;5159011;27;20034;-79
2022/05/05 03:07:29;;;;;;;4.97;1.77;;;;;;;11.07;64.09;100497.56;5141138;27;20038;-79
2022/05/05 03:09:55;;;;;;;4.00;1.60;;;;;;;11.19;63.53;100497.78;5159124;27;20034;-79
2022/05/05 03:12:20;;;;;;;4.30;1.83;;;;;;;11.07;64.39;100502.13;5159942;27;20038;-79
2022/05/05 03:14:47;;;;;;;6.57;2.10;;;;;;;11.05;64.68;100498.81;5141802;27;20026;-79
2022/05/05 03:17:13;;;;;;;3.72;1.35;;;;;;;11.00;64.15;100499.41;5160520;27;20031;-79
2022/05/05 03:19:39;;;;;;;6.80;2.05;;;;;;;11.02;64.27;100504.63;5158794;27;20033;-78
2022/05/05 03:22:04;;;;;;;5.32;2.00;;;;;;;11.04;64.25;100508.78;5158781;27;20031;-78
2022/05/05 03:24:29;;;;;;;6.00;1.80;;;;;;;11.01;64.51;100509.19;5158941;27;20457;-79
2022/05/05 03:26:56;;;;;;;4.03;1.50;;;;;;;11.04;64.57;100507.94;5140094;27;20514;-79
2022/05/05 03:29:22;;;;;;;4.03;1.75;;;;;;;11.04;64.46;100502.53;5158743;27;20022;-79
2022/05/05 03:31:47;;;;;;;6.70;2.00;;;;;;;11.03;64.49;100512.50;5158746;27;20022;-78
2022/05/05 03:34:12;;;;;;;4.47;1.80;;;;;;;11.09;64.42;100506.28;5158193;27;20027;-79
2022/05/05 03:36:38;;;;;;;3.83;1.50;;;;;;;11.01;65.08;100514.56;5158419;27;20031;-78
2022/05/05 03:39:03;;;;;;;5.63;2.00;;;;;;;11.01;64.95;100519.13;5158695;27;20507;-78
2022/05/05 03:41:29;;;;;;;7.37;1.97;;;;;;;11.03;64.98;100517.88;5158284;27;20026;-78
2022/05/05 03:43:54;;;;;;;6.67;2.40;;;;;;;11.02;65.23;100516.22;5159083;27;20251;-78
2022/05/05 03:46:19;;;;;;;5.57;2.47;;;;;;;11.04;64.64;100513.34;5159745;27;20113;-78
2022/05/05 03:48:45;;;;;;;7.77;1.83;;;;;;;11.00;64.78;100517.47;5159563;27;20038;-79
2022/05/05 03:51:10;;;;;;;5.13;2.03;;;;;;;11.05;65.11;100520.38;5160721;27;20026;-80
2022/05/05 03:53:36;;;;;;;5.38;1.80;;;;;;;11.04;64.77;100524.94;5141824;27;20054;-79
2022/05/05 03:56:03;;;;;;;6.80;2.47;;;;;;;11.06;65.30;100530.13;5160228;27;20039;-79
2022/05/05 03:58:28;;;;;;;7.18;2.33;;;;;;;10.94;66.02;100526.38;5142121;27;20388;-79
2022/05/05 04:00:53;;;;;;;5.50;1.90;;;;;;;11.12;65.86;100527.44;5140161;27;20027;-79
2022/05/05 04:03:31;;;;;;;5.55;2.05;;;;;;;11.11;66.12;100535.72;5139565;27;20264;-80
2022/05/05 04:06:01;;;;;;;10.05;2.10;;;;;;;11.06;65.94;100530.97;5157718;27;20041;-77
2022/05/05 04:08:27;;;;;;;6.55;1.85;;;;;;;10.99;66.56;100534.69;5156984;27;20027;-77
2022/05/05 04:10:53;;;;;;;5.77;2.13;;;;;;;11.04;66.67;100540.28;5156567;27;20027;-78
2022/05/05 04:13:19;;;;;;;5.53;2.40;;;;;;;10.89;67.67;100536.94;5155942;27;20050;-77
2022/05/05 04:15:45;;;;;;;6.50;2.45;;;;;;;10.87;68.08;100537.16;5137196;27;20066;-77
2022/05/05 04:18:10;;;;;;;3.60;1.63;;;;;;;10.81;67.81;100542.50;5156034;27;20034;-77
2022/05/05 04:20:35;;;;;;;10.73;2.27;;;;;;;10.96;67.75;100541.31;5156695;27;20113;-77
2022/05/05 04:23:00;;;;;;;4.27;1.90;;;;;;;11.06;67.03;100546.31;5157144;27;20019;-77
2022/05/05 04:25:26;;;;;;;5.40;2.40;;;;;;;10.96;67.18;100544.00;5158546;27;20026;-78
2022/05/05 04:27:52;;;;;;;6.43;2.38;;;;;;;10.92;67.50;100550.03;5159494;27;20023;-77
2022/05/05 04:30:17;;;;;;;6.40;2.17;;;;;;;10.94;67.28;100550.63;5157548;27;20421;-77
2022/05/05 04:32:43;;;;;;;5.68;2.22;;;;;;;10.89;67.45;100545.88;5158218;27;20051;-77
2022/05/05 04:35:10;;;;;;;6.10;2.03;;;;;;;10.89;67.21;100556.66;5137763;27;20099;-77
2022/05/05 04:37:35;;;;;;;7.38;2.65;;;;;;;10.83;68.14;100557.47;5155588;27;20401;-77
2022/05/05 04:40:01;;;;;;;5.17;2.20;;;;;;;10.79;67.76;100554.31;5155579;27;20049;-77
2022/05/05 04:42:26;;;;;;;5.47;2.43;;;;;;;10.78;67.86;100558.06;5155931;27;20252;-77
2022/05/05 04:44:52;;;;;;;8.47;2.00;;;;;;;10.78;67.59;100560.75;5137157;27;20267;-77
2022/05/05 04:47:17;;;;;;;6.35;2.42;;;;;;;10.70;67.88;100562.81;5155594;27;20264;-78
2022/05/05 04:49:43;;;;;;;7.72;2.50;;;;;;;10.68;67.94;100557.63;5155275;27;20319;-78
2022/05/05 04:52:08;;;;;;;6.82;2.58;;;;;;;10.68;67.18;100559.50;5155364;27;20054;-77
2022/05/05 04:54:33;;;;;;;4.93;1.85;;;;;;;10.65;66.53;100552.63;5155276;27;20034;-77
2022/05/05 04:57:00;;;;;;;5.00;2.30;;;;;;;10.60;67.51;100562.34;5155101;27;20054;-78
2022/05/05 04:59:25;;;;;;;6.55;2.80;;;;;;;10.59;67.44;100568.75;5155080;27;20030;-77
2022/05/05 05:01:51;;;;;;;6.30;2.40;;;;;;;10.59;67.18;100564.22;5154906;27;20480;-77
2022/05/05 05:04:17;;;;;;;5.75;2.50;;;;;;;10.60;67.35;100563.19;5155280;27;20663;-78
2022/05/05 05:06:42;;;;;;;5.97;2.37;;;;;;;10.73;65.84;100578.59;5154819;27;20069;-77
2022/05/05 05:09:08;;;;;;;6.30;2.00;;;;;;;10.76;65.82;100576.28;5154465;27;20046;-78
2022/05/05 05:11:33;;;;;;;5.03;1.93;;;;;;;10.77;66.22;100579.81;5154575;27;20069;-78
2022/05/05 05:13:59;;;;;;;6.90;2.45;;;;;;;10.72;65.94;100588.53;5156214;27;20027;-78
2022/05/05 05:16:24;;;;;;;;;;;;;;;10.72;66.32;100577.75;5155305;27;20095;-78
2022/05/05 05:18:53;;;;;;;5.57;2.20;;;;;;;10.78;65.44;100593.09;5154692;27;19911;-77
2022/05/05 05:21:18;;;;;;;7.63;2.33;;;;;;;10.72;65.71;100585.84;5154533;27;20075;-78
2022/05/05 05:23:44;;;;;;;5.95;2.00;;;;;;;10.75;65.85;100596.19;5154199;27;20043;-77
2022/05/05 05:26:09;;;;;;;6.27;2.30;;;;;;;10.84;65.34;100594.16;5135880;27;20032;-78
2022/05/05 05:28:34;;;;;;;6.40;2.43;;;;;;;10.92;65.37;100601.25;5154507;27;20121;-78
2022/05/05 05:30:59;;;;;;;5.67;2.40;;;;;;;11.04;64.77;100599.63;5154290;27;20069;-77
2022/05/05 05:33:25;;;;;;;7.07;2.83;;;;;;;11.19;64.83;100599.44;5154393;27;20031;-77
2022/05/05 05:35:50;;;;;;;7.10;3.20;;;;;;;11.27;63.77;100594.69;5136126;27;20034;-77
2022/05/05 05:38:20;;;;;;;7.20;2.65;;;;;;;11.30;63.46;100590.72;5154949;27;20628;-78
2022/05/05 05:40:45;;;;;;;5.80;2.30;;;;;;;11.34;63.19;100598.22;5154730;27;20046;-79
2022/05/05 05:43:10;;;;;;;6.00;2.50;;;;;;;11.48;62.49;100602.59;5156022;27;20026;-77
2022/05/05 05:45:36;;;;;;;8.87;2.67;;;;;;;11.53;61.96;100604.66;5154293;27;20521;-77
2022/05/05 05:48:01;;;;;;;5.67;2.20;;;;;;;11.56;62.09;100609.66;5154835;27;20041;-77
2022/05/05 05:50:28;;;;;;;8.67;3.30;;;;;;;11.71;60.83;100604.88;5154639;27;20037;-77
2022/05/05 05:52:54;;;;;;;7.07;2.40;;;;;;;11.82;59.14;100608.88;5154691;27;20027;-77
2022/05/05 05:55:20;;;;;;;;;;;;;;;11.79;58.22;100609.28;5154903;27;20125;-77
2022/05/05 05:57:45;;;;;;;5.67;1.90;;;;;;;11.88;58.10;100601.78;5154962;27;20430;-77
2022/05/05 06:00:11;;;;;;;6.33;2.77;;;;;;;11.91;59.26;100612.19;5154458;27;20706;-77
2022/05/05 06:05:21;;;;;;;8.88;3.05;;;;;;;11.68;60.91;100613.38;5154240;27;20126;-76
2022/05/05 06:07:46;;;;;;;;;;;;;;;11.70;60.16;100615.88;5154216;27;20026;-76
2022/05/05 06:10:11;;;;;;;6.23;2.37;;;;;;;11.74;60.24;100617.13;5135203;27;19911;-76
2022/05/05 06:12:36;;;;;;;11.53;3.23;;;;;;;11.89;60.42;100620.47;5154368;27;20279;-75
2022/05/05 06:15:03;;;;;;;7.07;2.40;;;;;;;11.97;59.83;100628.38;5155623;27;20034;-76
2022/05/05 06:17:28;;;;;;;5.78;2.65;;;;;;;12.01;59.78;100623.38;5135534;27;20027;-76
2022/05/05 06:19:53;;;;;;;7.20;3.00;;;;;;;11.99;59.38;100629.00;5154000;27;20426;-76
2022/05/05 06:22:19;;;;;;;7.78;3.10;;;;;;;12.07;59.52;100631.47;5154118;27;20019;-76
2022/05/05 06:24:44;;;;;;;4.60;1.90;;;;;;;12.01;62.72;100631.47;5153399;27;20034;-76
2022/05/05 06:27:09;;;;;;;6.30;2.83;;;;;;;11.90;62.90;100632.94;5154110;27;20027;-76
2022/05/05 06:29:35;;;;;;;9.00;3.13;;;;;;;11.92;63.06;100630.03;5135257;27;20043;-76
2022/05/05 06:32:00;;;;;;;8.47;3.03;;;;;;;12.00;63.20;100636.03;5153622;27;20264;-76
2022/05/05 06:34:25;;;;;;;10.00;3.27;;;;;;;12.02;63.21;100638.53;5153934;27;20034;-76
2022/05/05 06:36:50;;;;;;;7.93;2.70;;;;;;;12.12;63.05;100645.19;5154783;27;20042;-76
2022/05/05 06:39:16;;;;;;;9.33;3.77;;;;;;;12.12;62.75;100638.97;5158075;27;20478;-76
2022/05/05 06:41:41;;;;;;;5.87;2.50;;;;;;;12.24;62.58;100644.53;5157488;27;20260;-76
2022/05/05 06:44:06;;;;;;;6.22;2.63;;;;;;;12.35;62.27;100646.63;5157877;27;20175;-76
2022/05/05 06:46:32;;;;;;;7.13;2.42;;;;;;;12.49;62.28;100648.25;5158013;27;20031;-77
2022/05/05 06:48:57;;;;;;;6.30;2.63;;;;;;;12.48;61.55;100644.72;5158057;27;20090;-76
2022/05/05 06:51:23;;;;;;;7.28;2.63;;;;;;;12.61;60.86;100651.13;5139254;27;20034;-77
2022/05/05 06:53:48;;;;;;;8.67;3.13;;;;;;;12.62;60.00;100652.78;5158069;27;20041;-76
2022/05/05 06:56:13;;;;;;;6.50;2.67;;;;;;;12.66;59.91;100652.16;5158013;27;20053;-76
2022/05/05 06:58:38;;;;;;;6.23;2.63;;;;;;;12.61;60.31;100662.75;5157533;27;20167;-77
2022/05/05 07:03:47;;;;;;;7.72;2.42;;;;;;;12.72;59.97;100655.88;5157085;27;20515;-76
2022/05/05 07:06:13;;;;;;;8.30;2.67;;;;;;;12.95;58.95;100664.31;5157469;27;20022;-76
2022/05/05 07:11:23;;;;;;;6.45;2.47;;;;;;;12.90;58.65;100666.00;5157119;27;20675;-76
2022/05/05 07:13:48;;;;;;;6.13;2.85;;;;;;;12.98;58.41;100672.00;5157083;27;20026;-76
2022/05/05 07:16:14;;;;;;;9.48;3.55;;;;;;;13.14;58.53;100671.50;5156981;27;20027;-76
2022/05/05 07:18:39;;;;;;;6.50;2.35;;;;;;;13.20;58.29;100683.38;5157165;27;20019;-76
2022/05/05 07:21:05;;;;;;;9.63;2.70;;;;;;;13.22;58.32;100680.47;5157209;27;20081;-76
2022/05/05 07:23:31;;;;;;;9.73;2.70;;;;;;;13.26;57.56;100674.38;5157326;27;20288;-76
2022/05/05 07:25:56;;;;;;;10.68;3.97;;;;;;;13.40;57.53;100686.81;5156717;27;20109;-76
2022/05/05 07:28:21;;;;;;;6.15;2.80;;;;;;;13.34;57.36;100678.72;5156834;27;20105;-76
2022/05/05 07:30:47;;;;;;;8.97;3.43;;;;;;;13.33;57.58;100688.72;5157375;27;20042;-76
2022/05/05 07:33:12;;;;;;;6.03;2.83;;;;;;;13.28;57.58;100685.81;5157217;27;20481;-76
2022/05/05 07:35:40;;;;;;;6.72;3.17;;;;;;;13.53;57.76;100683.19;5157256;27;20034;-76
2022/05/05 07:38:05;;;;;;;8.27;2.72;;;;;;;13.48;56.61;100686.53;5139817;27;20167;-76
2022/05/05 07:40:31;;;;;;;9.67;2.90;;;;;;;13.65;55.97;100680.59;5138745;27;20478;-75
2022/05/05 07:42:56;;;;;;;6.55;2.25;;;;;;;13.66;54.13;100682.25;5156946;27;20027;-76
2022/05/05 07:45:22;;;;;;;18.92;6.40;;;;;;;13.69;52.69;100688.09;5157371;27;20463;-76
2022/05/05 07:47:48;;;;;;;9.52;4.75;;;;;;;13.70;52.90;100697.03;5156724;27;20041;-76
2022/05/05 07:50:14;;;;;;;39.70;14.05;;;;;;;13.71;51.26;100693.28;5155975;27;20465;-75
2022/05/05 07:52:39;;;;;;;7.27;2.70;;;;;;;13.83;51.73;100694.22;5157011;27;20042;-76
2022/05/05 07:55:05;;;;;;;8.67;2.70;;;;;;;14.06;50.58;100699.06;5156723;27;20248;-76
2022/05/05 07:57:30;;;;;;;6.35;2.50;;;;;;;14.18;49.17;100700.81;5156842;27;20807;-76
2022/05/05 07:59:56;;;;;;;5.47;1.70;;;;;;;14.56;48.64;100697.16;5156597;27;20037;-76
2022/05/05 08:02:22;;;;;;;5.95;2.25;;;;;;;14.75;47.12;100701.56;5156515;27;20252;-76
2022/05/05 08:04:47;;;;;;;5.63;2.00;;;;;;;14.76;45.50;100700.50;5157374;27;20075;-76
2022/05/05 08:07:12;;;;;;;4.88;2.40;;;;;;;14.97;46.30;100710.06;5156576;27;20019;-75
2022/05/05 08:09:38;;;;;;;8.00;2.70;;;;;;;15.13;46.03;100719.50;5156628;27;20034;-76
2022/05/05 08:12:05;;;;;;;8.68;3.00;;;;;;;15.35;45.31;100709.81;5138004;27;20022;-76
2022/05/05 08:14:31;;;;;;;6.43;2.33;;;;;;;15.31;44.74;100711.31;5137869;27;20465;-76
2022/05/05 08:16:57;;;;;;;6.82;1.95;;;;;;;15.27;45.23;100716.38;5156529;27;20090;-76
2022/05/05 08:19:23;;;;;;;4.97;1.65;;;;;;;15.45;44.28;100711.97;5156429;27;20026;-76
2022/05/05 08:21:49;;;;;;;6.95;1.83;;;;;;;15.42;44.35;100726.00;5155709;27;20019;-76
2022/05/05 08:29:42;;;;;;;4.35;1.88;;;;;;;15.61;43.51;100714.06;5155761;27;20091;-76
2022/05/05 08:32:08;;;;;;;6.53;2.03;;;;;;;15.66;43.49;100716.94;5155799;27;20457;-76
2022/05/05 08:34:33;;;;;;;;;;;;;;;15.47;44.45;100718.84;5155842;27;20038;-76
2022/05/05 08:36:59;;;;;;;4.63;1.67;;;;;;;15.37;43.48;100715.03;5155816;27;19906;-77
2022/05/05 08:39:24;;;;;;;6.63;2.05;;;;;;;15.60;43.51;100721.38;5155993;27;20440;-76
2022/05/05 08:41:49;;;;;;;;;;;;;;;15.68;43.36;100719.41;5156052;27;20031;-76
2022/05/05 08:44:15;;;;;;;5.55;1.90;;;;;;;15.77;43.28;100718.00;5156078;27;19911;-76
2022/05/05 08:46:40;;;;;;;5.33;2.43;;;;;;;15.77;43.36;100728.88;5155675;27;20091;-76
2022/05/05 08:49:07;;;;;;;;;;;;;;;15.81;43.04;100722.75;5156000;27;20098;-76
2022/05/05 08:51:42;;;;;;;8.77;2.92;;;;;;;15.81;43.22;100714.59;5155438;27;19922;-76
2022/05/05 08:54:12;;;;;;;7.50;3.20;;;;;;;15.86;43.89;100728.34;5155446;27;20143;-76
2022/05/05 08:56:38;;;;;;;9.13;3.35;;;;;;;15.88;44.87;100731.66;5155254;27;20043;-76
2022/05/05 08:59:04;;;;;;;;;;;;;;;15.93;44.79;100726.34;5137524;27;20492;-76
2022/05/05 09:01:36;;;;;;;8.60;3.13;;;;;;;16.09;44.42;100722.13;5155364;27;20037;-76
2022/05/05 09:04:04;;;;;;;10.25;3.15;;;;;;;16.23;44.28;100730.91;5155074;27;20072;-76
2022/05/05 09:06:50;;;;;;;10.90;3.75;;;;;;;16.30;45.02;100729.69;5155155;27;20048;-76
2022/05/05 09:09:32;;;;;;;7.80;3.17;;;;;;;16.19;44.82;100724.25;5155128;27;20029;-76
2022/05/05 09:12:12;;;;;;;8.35;3.17;;;;;;;16.12;44.40;100727.06;5155082;27;20489;-76
2022/05/05 09:14:38;;;;;;;7.63;3.40;;;;;;;15.47;46.19;100729.69;5155431;27;20027;-77
2022/05/05 09:17:07;;;;;;;;;;;;;;;15.47;46.14;100731.56;5137530;27;20038;-77
2022/05/05 09:19:37;;;;;;;6.47;2.72;;;;;;;15.70;46.49;100733.59;5154842;27;19914;-76
2022/05/05 09:22:07;;;;;;;7.60;3.03;;;;;;;15.76;45.81;100732.69;5155028;27;20034;-76
2022/05/05 09:24:36;;;;;;;7.20;2.88;;;;;;;15.95;46.40;100728.81;5155209;27;20038;-77
2022/05/05 09:27:28;;;;;;;7.40;2.90;;;;;;;16.29;44.92;100729.97;5154750;27;20054;-76
2022/05/05 09:30:00;;;;;;;8.65;3.65;;;;;;;16.15;45.38;100740.22;5154997;27;20029;-77
2022/05/05 09:32:29;;;;;;;12.60;4.82;;;;;;;16.21;45.39;100725.69;5154697;27;20473;-77
2022/05/05 09:35:15;;;;;;;12.52;4.68;;;;;;;16.14;44.82;100730.41;5154339;27;20030;-77
2022/05/05 09:37:45;;;;;;;11.77;4.55;;;;;;;16.15;44.58;100725.78;5155896;27;20536;-76
2022/05/05 09:40:13;;;;;;;9.25;3.88;;;;;;;16.38;44.90;100730.44;5136119;27;20030;-77
2022/05/05 09:42:42;;;;;;;9.65;3.85;;;;;;;16.31;45.31;100728.63;5135903;27;20076;-77
2022/05/05 09:45:18;;;;;;;9.32;3.38;;;;;;;16.49;44.45;100729.59;5136024;27;20031;-77
2022/05/05 09:47:55;;;;;;;10.02;4.45;;;;;;;16.59;44.20;100729.84;5154734;27;20030;-76
2022/05/05 09:50:22;;;;;;;11.05;4.40;;;;;;;16.62;44.35;100729.38;5154517;27;20039;-77
2022/05/05 09:58:22;;;;;;;11.55;4.05;;;;;;;17.15;43.65;100736.56;5154570;27;20054;-76
2022/05/05 10:00:58;;;;;;;8.45;3.83;;;;;;;16.90;44.32;100734.94;5154488;27;20042;-77
2022/05/05 10:06:34;;;;;;;12.88;4.28;;;;;;;16.96;44.30;100739.44;5154564;27;20033;-77
2022/05/05 10:09:09;;;;;;;10.50;3.38;;;;;;;16.83;43.63;100736.16;5154572;27;20113;-77
2022/05/05 10:11:35;;;;;;;8.18;3.55;;;;;;;16.56;44.65;100742.03;5154902;27;20037;-76
2022/05/05 10:14:02;;;;;;;9.20;3.95;;;;;;;16.77;43.89;100740.63;5159103;27;20023;-77
2022/05/05 10:16:31;;;;;;;7.75;3.63;;;;;;;17.09;43.90;100737.50;5159070;27;20096;-76
2022/05/05 10:18:59;;;;;;;8.95;3.63;;;;;;;17.52;42.42;100740.59;5159178;27;20027;-76
2022/05/05 10:21:54;;;;;;;7.63;3.53;;;;;;;17.76;42.41;100730.44;5158895;27;20041;-76
2022/05/05 10:24:38;;;;;;;8.38;3.15;;;;;;;18.20;41.79;100744.28;5158352;27;20030;-77
2022/05/05 10:27:04;;;;;;;11.88;4.20;;;;;;;17.87;41.76;100731.47;5158213;27;20027;-77
2022/05/05 10:29:32;;;;;;;;;;;;;;;18.06;41.62;100740.25;5140194;27;20065;-77
2022/05/05 10:32:21;;;;;;;11.38;3.63;;;;;;;18.14;40.94;100732.47;5158224;27;19934;-76
2022/05/05 10:34:52;;;;;;;10.70;4.05;;;;;;;18.36;41.06;100730.66;5158374;27;20119;-77
2022/05/05 10:37:20;;;;;;;10.35;4.00;;;;;;;18.61;41.68;100734.91;5159008;27;20022;-76
2022/05/05 10:40:23;;;;;;;9.50;3.63;;;;;;;18.16;42.45;100733.06;5158275;27;20057;-77
2022/05/05 10:42:51;;;;;;;9.20;3.42;;;;;;;17.80;41.88;100728.03;5053646;28;20087;-78
2022/05/05 10:45:26;;;;;;;10.27;3.35;;;;;;;17.97;41.81;100731.63;5121812;27;20096;-77
2022/05/05 10:47:52;;;;;;;8.25;3.45;;;;;;;18.14;41.08;100727.00;5158077;27;20414;-77
2022/05/05 10:50:43;;;;;;;;;;;;;;;18.32;41.08;100725.94;5158130;27;20030;-76
2022/05/05 10:53:41;;;;;;;7.97;3.35;;;;;;;18.59;41.54;100726.13;5153396;27;19911;-77
2022/05/05 10:56:27;;;;;;;12.20;4.15;;;;;;;18.42;41.31;100722.56;5139707;27;20404;-76
2022/05/05 10:58:57;;;;;;;12.38;4.68;;;;;;;18.06;41.40;100724.72;5157725;27;20034;-75
2022/05/05 11:01:23;;;;;;;9.77;3.95;;;;;;;17.84;42.18;100721.88;5157744;27;20062;-76
2022/05/05 11:04:17;;;;;;;9.48;4.20;;;;;;;17.85;42.07;100730.88;5157574;27;20094;-76
2022/05/05 11:06:44;;;;;;;10.27;3.55;;;;;;;17.64;42.41;100725.03;5134954;27;20174;-76
2022/05/05 11:09:27;;;;;;;7.85;3.70;;;;;;;17.59;42.23;100727.63;5157500;27;20038;-77
2022/05/05 11:12:19;;;;;;;10.27;4.68;;;;;;;17.77;41.75;100733.97;5139424;27;20026;-77
2022/05/05 11:23:44;;;;;;;7.88;3.10;;;;;;;18.14;39.54;100734.38;5159352;27;20041;-78
2022/05/05 11:26:10;;;;;;;5.63;2.10;;;;;;;18.00;39.99;100725.69;5158786;27;20460;-77
2022/05/05 11:28:36;;;;;;;8.32;3.35;;;;;;;18.09;40.31;100735.13;5158272;27;20055;-77
2022/05/05 11:31:02;;;;;;;;;;;;;;;18.41;40.63;100729.91;5158361;27;20030;-78
2022/05/05 11:33:28;;;;;;;10.30;4.13;;;;;;;18.39;40.63;100732.06;5158771;27;19920;-78
2022/05/05 11:35:56;;;;;;;;;;;;;;;18.41;41.39;100727.19;5157684;27;20027;-76
2022/05/05 11:38:28;;;;;;;9.73;3.25;;;;;;;18.61;41.94;100724.81;5157345;27;19962;-76
2022/05/05 11:41:04;;;;;;;11.45;4.20;;;;;;;18.06;41.51;100735.63;5138477;27;20050;-76
2022/05/05 11:46:14;;;;;;;8.82;3.60;;;;;;;17.52;43.06;100731.59;5156872;27;19933;-76
2022/05/05 11:48:41;;;;;;;;;;;;;;;17.52;43.63;100731.59;5157260;27;20462;-76
2022/05/05 11:51:06;;;;;;;8.98;4.07;;;;;;;17.87;43.01;100735.00;5156665;27;20292;-77
2022/05/05 11:53:31;;;;;;;;;;;;;;;18.25;41.74;100726.13;5156825;27;20030;-77
2022/05/05 11:55:57;;;;;;;8.32;3.88;;;;;;;18.63;41.69;100732.75;5156286;27;19921;-76
2022/05/05 12:04:02;;;;;;;9.93;3.50;;;;;;;19.14;40.29;100727.97;5156379;27;20034;-76
2022/05/05 12:06:29;;;;;;;11.07;3.53;;;;;;;19.14;38.75;100722.50;5138041;27;20038;-76
2022/05/05 12:08:58;;;;;;;6.93;3.17;;;;;;;19.32;38.41;100730.41;5156195;27;20061;-76
2022/05/05 12:11:26;;;;;;;7.43;3.05;;;;;;;19.22;37.74;100724.78;5156451;27;20027;-76
2022/05/05 12:13:52;;;;;;;6.80;2.50;;;;;;;18.85;38.82;100725.41;5137803;27;20465;-76
2022/05/05 12:16:17;;;;;;;12.05;3.97;;;;;;;18.48;40.10;100718.81;5156180;27;20033;-75
2022/05/05 12:18:52;;;;;;;;;;;;;;;18.41;41.64;100724.47;5156571;27;20038;-76
2022/05/05 12:21:25;;;;;;;9.25;4.00;;;;;;;18.57;42.16;100728.25;5156124;27;19906;-76
2022/05/05 12:23:58;;;;;;;8.77;3.70;;;;;;;18.34;42.10;100730.06;5156014;27;20110;-76